Time;durP1;ratioP1;P1;durP2;ratioP2;P2;SDS_P1;SDS_P2;PMS_P1;PMS_P2;Temp;Humidity;BMP_temperature;BMP_pressure;BME280_temperature;BME280_humidity;BME280_pressure;Samples;Min_cycle;Max_cycle;Signal;HPM_P1;HPM_P2
2021/04/22 00:01:26;;;;;;;11.68;5.60;;;11.70;63.90;;;;;;6186593;23;20004;-47
2021/04/22 00:03:52;;;;;;;11.20;5.97;;;11.70;63.80;;;;;;6186438;23;20005;-47
2021/04/22 00:06:18;;;;;;;11.80;5.07;;;11.70;63.90;;;;;;6186545;23;20063;-47
2021/04/22 00:08:44;;;;;;;14.18;6.30;;;11.70;63.90;;;;;;6186098;23;20009;-47
2021/04/22 00:11:10;;;;;;;9.60;5.18;;;11.70;63.90;;;;;;6186293;23;20027;-47
2021/04/22 00:13:35;;;;;;;10.65;5.45;;;11.70;63.90;;;;;;6186668;23;20005;-47
2021/04/22 00:16:01;;;;;;;9.07;4.88;;;11.60;63.90;;;;;;6186332;23;20004;-47
2021/04/22 00:18:28;;;;;;;8.85;4.60;;;11.70;64.00;;;;;;6186086;23;20001;-47
2021/04/22 00:20:54;;;;;;;12.30;5.15;;;11.70;64.00;;;;;;6186089;23;20345;-47
2021/04/22 00:23:20;;;;;;;9.93;5.00;;;11.60;64.00;;;;;;6186242;23;20005;-47
2021/04/22 00:25:46;;;;;;;11.68;5.35;;;11.70;64.10;;;;;;6186064;23;20419;-47
2021/04/22 00:28:14;;;;;;;11.63;5.07;;;11.60;64.10;;;;;;6185901;23;20008;-47
2021/04/22 00:30:40;;;;;;;9.70;5.60;;;11.60;64.00;;;;;;6186321;23;20012;-47
2021/04/22 00:33:08;;;;;;;10.05;5.38;;;11.60;64.10;;;;;;6185908;23;20001;-47
2021/04/22 00:35:35;;;;;;;12.00;5.13;;;11.60;64.10;;;;;;6186066;23;20005;-47
2021/04/22 00:38:01;;;;;;;10.75;5.22;;;11.60;64.10;;;;;;6185712;23;20009;-47
2021/04/22 00:40:27;;;;;;;9.20;5.47;;;11.60;64.20;;;;;;6186085;23;20005;-47
2021/04/22 00:42:53;;;;;;;11.50;5.47;;;11.60;64.20;;;;;;6185787;23;20393;-47
2021/04/22 00:45:20;;;;;;;9.52;5.75;;;11.60;64.30;;;;;;6186235;23;20007;-47
2021/04/22 00:47:46;;;;;;;11.10;6.32;;;11.60;64.20;;;;;;6186304;23;20013;-47
2021/04/22 00:50:20;;;;;;;11.15;5.78;;;11.60;64.20;;;;;;6185448;23;20052;-47
2021/04/22 00:52:45;;;;;;;12.05;5.85;;;11.60;64.30;;;;;;6185976;23;20005;-47
2021/04/22 00:55:12;;;;;;;11.85;5.38;;;11.60;64.30;;;;;;6186372;23;20080;-47
2021/04/22 00:57:37;;;;;;;11.55;5.50;;;11.60;64.30;;;;;;6186045;23;20033;-47
2021/04/22 01:00:09;;;;;;;13.70;6.32;;;11.60;64.30;;;;;;6185987;23;19997;-47
2021/04/22 01:02:37;;;;;;;13.57;6.18;;;11.60;64.30;;;;;;6186118;23;20009;-47
2021/04/22 01:05:14;;;;;;;10.82;5.43;;;11.60;64.40;;;;;;6185630;23;20037;-47
2021/04/22 01:07:43;;;;;;;17.08;5.53;;;11.60;64.50;;;;;;6209134;23;20013;-47
2021/04/22 01:10:11;;;;;;;12.10;5.63;;;11.60;64.40;;;;;;6185396;23;20392;-47
2021/04/22 01:12:37;;;;;;;10.85;5.20;;;11.60;64.50;;;;;;6185964;23;20016;-47
2021/04/22 01:15:17;;;;;;;11.65;6.45;;;11.60;64.50;;;;;;6185857;23;20001;-47
2021/04/22 01:17:42;;;;;;;15.63;6.07;;;11.60;64.50;;;;;;6185950;23;20005;-47
2021/04/22 01:20:14;;;;;;;12.30;6.20;;;11.60;64.60;;;;;;6185409;23;20013;-47
2021/04/22 01:22:39;;;;;;;11.75;5.55;;;11.60;64.50;;;;;;6185333;23;20001;-47
2021/04/22 01:25:08;;;;;;;9.25;5.20;;;11.60;64.60;;;;;;6185757;23;20012;-47
2021/04/22 01:27:34;;;;;;;9.70;5.15;;;11.60;64.60;;;;;;6185629;23;20013;-47
2021/04/22 01:29:59;;;;;;;8.27;4.95;;;11.60;64.60;;;;;;6185143;23;20453;-47
2021/04/22 01:32:25;;;;;;;13.10;5.50;;;11.60;64.70;;;;;;6185594;23;20044;-47
2021/04/22 01:34:51;;;;;;;12.27;5.00;;;11.60;64.70;;;;;;6185918;23;20001;-47
2021/04/22 01:37:16;;;;;;;10.13;4.78;;;11.60;64.70;;;;;;6185879;23;20024;-47
2021/04/22 01:39:42;;;;;;;10.52;5.90;;;11.60;64.80;;;;;;6185699;23;20001;-47
2021/04/22 01:42:08;;;;;;;11.07;4.57;;;11.60;64.80;;;;;;6185570;23;20006;-47
2021/04/22 01:44:33;;;;;;;8.55;4.80;;;11.60;64.80;;;;;;6185648;23;20029;-47
2021/04/22 01:46:59;;;;;;;14.43;5.20;;;11.60;64.90;;;;;;6185879;23;20009;-47
2021/04/22 01:49:25;;;;;;;10.45;5.40;;;11.60;64.80;;;;;;6184315;23;20405;-47
2021/04/22 01:51:50;;;;;;;13.02;6.03;;;11.60;64.90;;;;;;6186309;23;20088;-47
2021/04/22 01:54:16;;;;;;;12.88;4.50;;;11.60;64.90;;;;;;6185582;23;20033;-47
2021/04/22 01:56:41;;;;;;;12.82;6.05;;;11.60;64.90;;;;;;6185869;23;20143;-47
2021/04/22 01:59:07;;;;;;;9.77;5.07;;;11.60;64.90;;;;;;6185262;23;20006;-47
2021/04/22 02:01:32;;;;;;;10.95;4.80;;;11.50;64.90;;;;;;6185940;23;20009;-47
2021/04/22 02:03:58;;;;;;;10.25;5.20;;;11.50;64.90;;;;;;6185723;23;20005;-47
2021/04/22 02:06:23;;;;;;;12.32;5.60;;;11.60;65.00;;;;;;6185531;23;20017;-47
2021/04/22 02:08:49;;;;;;;17.08;5.97;;;11.50;65.00;;;;;;6185375;23;19997;-47
2021/04/22 02:11:15;;;;;;;13.70;5.47;;;11.50;65.00;;;;;;6185783;23;20405;-47
2021/04/22 02:13:40;;;;;;;9.82;5.43;;;11.50;65.00;;;;;;6185536;23;20052;-47
2021/04/22 02:16:06;;;;;;;12.93;5.80;;;11.50;64.90;;;;;;6185721;23;20440;-47
2021/04/22 02:18:32;;;;;;;10.70;6.05;;;11.50;65.00;;;;;;6185274;23;20297;-47
2021/04/22 02:20:57;;;;;;;14.57;5.88;;;11.50;65.00;;;;;;6186066;23;20017;-47
2021/04/22 02:23:25;;;;;;;13.93;4.80;;;11.50;65.00;;;;;;6185641;23;20010;-47
2021/04/22 02:25:50;;;;;;;11.63;6.18;;;11.50;65.10;;;;;;6185707;23;20084;-47
2021/04/22 02:28:17;;;;;;;13.43;6.25;;;11.50;65.00;;;;;;6184878;23;20393;-47
2021/04/22 02:30:44;;;;;;;13.02;5.93;;;11.50;65.10;;;;;;6185190;23;20009;-47
2021/04/22 02:33:12;;;;;;;9.60;5.43;;;11.50;65.10;;;;;;6186005;23;19997;-47
2021/04/22 02:35:40;;;;;;;9.60;4.45;;;11.50;65.10;;;;;;6187347;23;20065;-47
2021/04/22 02:38:07;;;;;;;12.85;4.75;;;11.50;65.20;;;;;;6187366;23;20068;-47
2021/04/22 02:40:34;;;;;;;13.57;5.22;;;11.50;65.10;;;;;;6183221;23;20063;-47
2021/04/22 02:43:03;;;;;;;10.52;5.35;;;11.50;65.20;;;;;;6187122;23;20385;-47
2021/04/22 02:45:32;;;;;;;10.95;5.20;;;11.50;65.30;;;;;;6187132;23;20001;-47
2021/04/22 02:47:59;;;;;;;13.00;5.65;;;11.50;65.20;;;;;;6187136;23;20382;-47
2021/04/22 02:50:30;;;;;;;11.02;5.05;;;11.50;65.30;;;;;;6186620;23;20005;-47
2021/04/22 02:52:55;;;;;;;11.88;5.50;;;11.50;65.30;;;;;;6187911;23;20005;-47
2021/04/22 02:55:23;;;;;;;13.63;5.05;;;11.50;65.30;;;;;;6186968;23;19997;-47
2021/04/22 02:57:48;;;;;;;10.90;5.53;;;11.50;65.30;;;;;;6187313;23;20068;-47
2021/04/22 03:00:20;;;;;;;14.20;5.45;;;11.50;65.30;;;;;;6186703;23;20044;-47
2021/04/22 03:02:46;;;;;;;14.05;5.38;;;11.50;65.40;;;;;;6186770;23;20001;-47
2021/04/22 03:05:12;;;;;;;11.25;5.63;;;11.50;65.40;;;;;;6187170;23;20021;-47
2021/04/22 03:07:38;;;;;;;10.68;5.80;;;11.50;65.40;;;;;;6186693;23;20013;-47
2021/04/22 03:10:06;;;;;;;12.52;5.90;;;11.40;65.40;;;;;;6186882;23;20076;-47
2021/04/22 03:12:32;;;;;;;11.32;5.70;;;11.50;65.40;;;;;;6186829;23;20297;-47
2021/04/22 03:14:58;;;;;;;13.32;6.57;;;11.40;65.40;;;;;;6187273;23;20005;-47
2021/04/22 03:17:23;;;;;;;11.57;5.60;;;11.40;65.40;;;;;;6186979;23;20008;-47
2021/04/22 03:19:49;;;;;;;14.25;5.93;;;11.40;65.40;;;;;;6186151;23;20009;-47
2021/04/22 03:22:15;;;;;;;8.95;5.20;;;11.50;65.40;;;;;;6187029;23;20075;-47
2021/04/22 03:24:41;;;;;;;12.23;5.40;;;11.40;65.40;;;;;;6186633;23;20044;-47
2021/04/22 03:27:07;;;;;;;12.52;5.65;;;11.40;65.50;;;;;;6186575;23;20013;-47
2021/04/22 03:29:32;;;;;;;11.48;5.47;;;11.40;65.50;;;;;;6186808;23;20028;-47
2021/04/22 03:31:58;;;;;;;12.23;5.97;;;11.50;65.60;;;;;;6186574;23;20406;-47
2021/04/22 03:34:24;;;;;;;15.75;5.45;;;11.40;65.50;;;;;;6186917;23;20013;-47
2021/04/22 03:36:49;;;;;;;15.88;6.05;;;11.40;65.50;;;;;;6186869;23;20016;-47
2021/04/22 03:39:15;;;;;;;11.57;5.57;;;11.40;65.50;;;;;;6186677;23;20005;-47
2021/04/22 03:41:41;;;;;;;10.10;5.70;;;11.40;65.50;;;;;;6186476;23;20312;-47
2021/04/22 03:44:06;;;;;;;9.88;5.53;;;11.40;65.60;;;;;;6187023;23;20005;-47
2021/04/22 03:46:32;;;;;;;12.70;6.13;;;11.40;65.50;;;;;;6186176;23;20012;-47
2021/04/22 03:48:58;;;;;;;15.07;6.95;;;11.40;66.30;;;;;;6186133;23;20013;-47
2021/04/22 03:51:24;;;;;;;15.40;7.05;;;11.40;65.60;;;;;;6186787;23;20001;-47
2021/04/22 03:53:49;;;;;;;11.10;5.10;;;11.40;65.60;;;;;;6186471;23;20452;-47
2021/04/22 03:56:15;;;;;;;18.23;4.50;;;11.40;65.60;;;;;;6186758;23;20076;-47
2021/04/22 03:58:41;;;;;;;10.05;5.28;;;11.40;65.70;;;;;;6185943;23;20317;-47
2021/04/22 04:01:06;;;;;;;7.93;4.82;;;11.40;65.60;;;;;;6186571;23;20079;-47
2021/04/22 04:03:32;;;;;;;12.75;6.03;;;11.40;65.70;;;;;;6186453;23;20001;-47
2021/04/22 04:05:57;;;;;;;9.27;4.47;;;11.40;65.70;;;;;;6186682;23;20340;-47
2021/04/22 04:08:23;;;;;;;9.23;5.40;;;11.40;65.70;;;;;;6186182;23;20385;-47
2021/04/22 04:10:49;;;;;;;9.65;4.78;;;11.40;65.70;;;;;;6186709;23;20035;-47
2021/04/22 04:13:14;;;;;;;10.30;5.35;;;11.40;65.70;;;;;;6186365;23;20696;-47
2021/04/22 04:15:45;;;;;;;9.80;5.10;;;11.40;65.70;;;;;;6186616;23;20080;-47
2021/04/22 04:18:11;;;;;;;;;;;11.40;65.80;;;;;;6186887;23;20023;-47
2021/04/22 04:20:36;;;;;;;9.25;4.47;;;11.40;65.80;;;;;;6185927;23;20292;-47
2021/04/22 04:23:02;;;;;;;12.30;4.75;;;11.40;65.80;;;;;;6186384;23;20080;-47
2021/04/22 04:25:28;;;;;;;18.55;6.45;;;11.40;65.80;;;;;;6186401;23;20001;-47
2021/04/22 04:27:53;;;;;;;9.55;4.18;;;11.40;65.70;;;;;;6185895;23;20033;-47
2021/04/22 04:30:19;;;;;;;12.48;5.72;;;11.40;65.80;;;;;;6186176;23;20464;-47
2021/04/22 04:32:46;;;;;;;12.60;6.20;;;11.40;65.80;;;;;;6186042;23;20013;-47
2021/04/22 04:35:13;;;;;;;14.95;6.32;;;11.40;65.80;;;;;;6186620;23;20001;-47
2021/04/22 04:37:40;;;;;;;15.30;6.60;;;11.40;65.80;;;;;;6186269;23;20001;-47
2021/04/22 04:40:08;;;;;;;13.32;6.60;;;11.40;65.80;;;;;;6186237;23;20001;-47
2021/04/22 04:42:34;;;;;;;12.88;6.25;;;11.40;65.80;;;;;;6186578;23;19997;-47
2021/04/22 04:44:59;;;;;;;12.07;4.93;;;11.40;65.80;;;;;;6186248;23;20001;-47
2021/04/22 04:47:25;;;;;;;10.80;4.72;;;11.40;65.90;;;;;;6184899;23;20340;-47
2021/04/22 04:49:51;;;;;;;9.52;4.85;;;11.40;65.80;;;;;;6185771;23;20043;-47
2021/04/22 04:52:16;;;;;;;12.43;5.93;;;11.40;65.90;;;;;;6185905;23;20278;-47
2021/04/22 04:54:42;;;;;;;11.55;5.50;;;11.40;65.90;;;;;;6185965;23;20005;-47
2021/04/22 04:57:09;;;;;;;16.10;5.93;;;11.40;65.90;;;;;;6185714;23;20013;-47
2021/04/22 04:59:35;;;;;;;17.92;5.78;;;11.40;65.80;;;;;;6185383;23;20005;-47
2021/04/22 05:02:00;;;;;;;13.35;6.18;;;11.40;65.90;;;;;;6185906;23;20009;-47
2021/04/22 05:04:26;;;;;;;20.75;6.93;;;11.40;65.90;;;;;;6186111;23;20416;-47
2021/04/22 05:06:51;;;;;;;13.80;6.45;;;11.40;65.90;;;;;;6186149;23;20055;-47
2021/04/22 05:09:17;;;;;;;9.23;5.15;;;11.40;65.90;;;;;;6185549;23;20409;-47
2021/04/22 05:11:43;;;;;;;11.18;5.15;;;11.40;65.90;;;;;;6186162;23;20009;-47
2021/04/22 05:14:08;;;;;;;10.32;6.22;;;11.40;65.90;;;;;;6186038;23;20246;-47
2021/04/22 05:16:34;;;;;;;14.80;6.50;;;11.50;66.00;;;;;;6185957;23;20399;-47
2021/04/22 05:19:00;;;;;;;12.82;6.78;;;11.40;65.90;;;;;;6185261;23;20001;-47
2021/04/22 05:21:26;;;;;;;19.80;7.47;;;11.40;66.60;;;;;;6186069;23;20033;-47
2021/04/22 05:23:52;;;;;;;14.82;6.63;;;11.50;66.00;;;;;;6185242;23;20072;-47
2021/04/22 05:26:21;;;;;;;14.15;6.78;;;11.50;66.00;;;;;;6185674;23;20017;-47
2021/04/22 05:28:47;;;;;;;16.65;7.20;;;11.50;66.00;;;;;;6185265;23;20001;-47
2021/04/22 05:31:13;;;;;;;14.23;6.70;;;11.40;65.90;;;;;;6185901;23;20009;-47
2021/04/22 05:33:38;;;;;;;12.30;6.93;;;11.40;65.90;;;;;;6185693;23;19997;-47
2021/04/22 05:36:05;;;;;;;21.30;7.93;;;11.50;66.00;;;;;;6185282;23;20009;-47
2021/04/22 05:38:31;;;;;;;17.80;8.55;;;11.40;65.90;;;;;;6185273;23;19997;-47
2021/04/22 05:40:56;;;;;;;15.55;7.03;;;11.40;65.90;;;;;;6185907;23;20080;-47
2021/04/22 05:43:22;;;;;;;14.65;8.10;;;11.40;66.10;;;;;;6185764;23;20084;-47
2021/04/22 05:45:48;;;;;;;15.52;7.80;;;11.40;66.10;;;;;;6185355;23;20012;-47
2021/04/22 05:48:13;;;;;;;15.75;7.43;;;11.40;66.10;;;;;;6185374;23;20005;-47
2021/04/22 05:50:39;;;;;;;17.98;8.15;;;11.40;66.20;;;;;;6185520;23;20052;-47
2021/04/22 05:53:05;;;;;;;13.02;7.03;;;11.40;66.20;;;;;;6185539;23;20013;-47
2021/04/22 05:55:30;;;;;;;15.40;8.57;;;11.40;66.20;;;;;;6185539;23;20008;-47
2021/04/22 05:57:57;;;;;;;14.77;8.07;;;11.50;66.20;;;;;;6185242;23;20032;-47
2021/04/22 06:00:24;;;;;;;18.27;8.38;;;11.40;66.30;;;;;;6185464;23;20453;-47
2021/04/22 06:02:50;;;;;;;15.45;8.20;;;11.50;66.30;;;;;;6185424;23;20005;-47
2021/04/22 06:05:16;;;;;;;16.48;8.60;;;11.40;66.30;;;;;;6185534;23;19997;-47
2021/04/22 06:07:41;;;;;;;14.27;7.47;;;11.40;66.30;;;;;;6185573;23;20013;-47
2021/04/22 06:10:08;;;;;;;20.58;8.30;;;11.40;66.30;;;;;;6187203;23;20024;-47
2021/04/22 06:12:33;;;;;;;16.52;7.60;;;11.50;66.50;;;;;;6187206;23;20001;-47
2021/04/22 06:15:00;;;;;;;15.60;7.93;;;11.50;66.50;;;;;;6187216;23;20071;-47
2021/04/22 06:17:25;;;;;;;17.05;7.68;;;11.40;67.00;;;;;;6187398;23;20012;-47
2021/04/22 06:19:51;;;;;;;18.08;7.85;;;11.40;66.80;;;;;;6186929;23;20009;-47
2021/04/22 06:22:17;;;;;;;14.30;7.97;;;11.40;66.80;;;;;;6187757;23;20076;-47
2021/04/22 06:24:42;;;;;;;19.50;7.90;;;11.50;66.90;;;;;;6187283;23;20389;-47
2021/04/22 06:27:08;;;;;;;13.93;7.90;;;11.50;67.00;;;;;;6187401;23;20016;-47
2021/04/22 06:29:34;;;;;;;25.75;8.55;;;11.50;66.90;;;;;;6187083;23;20419;-47
2021/04/22 06:31:59;;;;;;;20.75;9.55;;;11.50;66.80;;;;;;6187362;23;20016;-47
2021/04/22 06:34:25;;;;;;;24.98;9.88;;;11.50;66.80;;;;;;6187222;23;20044;-47
2021/04/22 06:36:51;;;;;;;22.35;9.82;;;11.60;67.10;;;;;;6187202;23;20009;-47
2021/04/22 06:39:17;;;;;;;20.88;9.13;;;11.60;67.00;;;;;;6186802;23;20005;-47
2021/04/22 06:41:43;;;;;;;21.27;10.57;;;11.60;67.10;;;;;;6187495;23;20400;-47
2021/04/22 06:44:09;;;;;;;25.05;10.80;;;11.60;67.20;;;;;;6187176;23;20036;-47
2021/04/22 06:46:35;;;;;;;18.25;9.30;;;11.60;67.20;;;;;;6187489;23;20009;-47
2021/04/22 06:49:02;;;;;;;24.83;11.02;;;11.60;67.20;;;;;;6186952;23;20274;-47
2021/04/22 06:51:27;;;;;;;23.05;10.57;;;11.70;67.20;;;;;;6187330;23;20001;-47
2021/04/22 06:53:53;;;;;;;17.27;10.55;;;11.70;67.30;;;;;;6187002;23;20028;-47
2021/04/22 06:56:19;;;;;;;20.63;10.32;;;11.70;67.20;;;;;;6187310;23;20061;-47
2021/04/22 06:58:44;;;;;;;19.48;10.38;;;11.70;67.30;;;;;;6186858;23;20444;-47
2021/04/22 07:01:10;;;;;;;23.00;10.68;;;11.70;67.40;;;;;;6187215;23;20005;-48
2021/04/22 07:03:36;;;;;;;26.27;10.02;;;11.80;67.20;;;;;;6187226;23;20005;-47
2021/04/22 07:06:01;;;;;;;26.92;10.80;;;11.80;67.00;;;;;;6187275;23;20037;-47
2021/04/22 07:08:27;;;;;;;25.65;11.65;;;11.90;66.90;;;;;;6186898;23;20012;-47
2021/04/22 07:10:53;;;;;;;25.58;10.82;;;11.90;66.80;;;;;;6187114;23;20005;-47
2021/04/22 07:13:18;;;;;;;23.05;11.88;;;12.00;67.00;;;;;;6187048;23;20001;-47
2021/04/22 07:15:44;;;;;;;28.60;11.40;;;11.90;67.10;;;;;;6186879;23;20397;-47
2021/04/22 07:18:11;;;;;;;27.10;11.00;;;12.00;67.10;;;;;;6187260;23;20058;-47
2021/04/22 07:20:37;;;;;;;29.88;13.45;;;12.00;66.90;;;;;;6185781;23;20487;-47
2021/04/22 07:23:03;;;;;;;23.33;12.75;;;12.10;66.90;;;;;;6187233;23;20000;-47
2021/04/22 07:25:32;;;;;;;25.17;12.57;;;12.10;66.90;;;;;;6186504;23;20048;-47
2021/04/22 07:28:03;;;;;;;28.65;13.05;;;12.10;67.10;;;;;;6187004;23;20017;-47
2021/04/22 07:30:29;;;;;;;36.28;13.60;;;12.10;67.00;;;;;;6186271;23;20428;-47
2021/04/22 07:32:55;;;;;;;27.08;11.52;;;12.10;67.30;;;;;;6186767;23;20005;-47
2021/04/22 07:35:20;;;;;;;27.98;12.90;;;12.00;67.30;;;;;;6186630;23;20012;-47
2021/04/22 07:37:50;;;;;;;24.52;12.73;;;12.10;67.40;;;;;;6187047;23;19998;-47
2021/04/22 07:40:21;;;;;;;31.50;14.47;;;12.10;67.40;;;;;;6185964;23;20463;-47
2021/04/22 07:42:48;;;;;;;28.75;13.75;;;12.10;67.20;;;;;;6186739;23;20048;-47
2021/04/22 07:45:19;;;;;;;28.67;13.70;;;12.20;67.50;;;;;;6186258;23;20017;-47
2021/04/22 07:47:45;;;;;;;27.88;12.75;;;12.20;67.00;;;;;;6186508;23;20445;-47
2021/04/22 07:50:13;;;;;;;21.38;12.32;;;12.30;66.90;;;;;;6184931;23;20001;-47
2021/04/22 07:52:39;;;;;;;32.05;14.35;;;12.30;67.10;;;;;;6186937;23;20005;-47
2021/04/22 07:55:07;;;;;;;33.92;17.38;;;12.30;67.00;;;;;;6186732;23;20001;-47
2021/04/22 07:57:35;;;;;;;28.75;13.20;;;12.30;66.90;;;;;;6186674;23;20001;-47
2021/04/22 08:00:01;;;;;;;32.05;12.23;;;12.30;66.90;;;;;;6186126;23;20012;-47
2021/04/22 08:02:26;;;;;;;30.80;12.70;;;12.40;67.00;;;;;;6186760;23;20005;-47
2021/04/22 08:04:52;;;;;;;26.80;12.93;;;12.40;67.10;;;;;;6186667;23;19997;-47
2021/04/22 08:07:17;;;;;;;26.38;13.00;;;12.40;67.10;;;;;;6186590;23;20040;-47
2021/04/22 08:09:43;;;;;;;35.88;14.82;;;12.40;67.30;;;;;;6185932;23;20008;-47
2021/04/22 08:12:09;;;;;;;32.17;13.65;;;12.40;67.40;;;;;;6186281;23;20059;-47
2021/04/22 08:14:34;;;;;;;29.33;15.20;;;12.40;67.20;;;;;;6186547;23;20004;-47
2021/04/22 08:17:00;;;;;;;30.33;14.68;;;12.50;67.20;;;;;;6186274;23;20279;-47
2021/04/22 08:19:26;;;;;;;32.47;13.75;;;12.50;67.10;;;;;;6186127;23;20013;-47
2021/04/22 08:21:52;;;;;;;31.90;14.95;;;12.50;67.10;;;;;;6186656;23;20009;-47
2021/04/22 08:24:17;;;;;;;32.38;15.32;;;12.50;67.30;;;;;;6186542;23;20474;-47
2021/04/22 08:26:44;;;;;;;24.85;13.43;;;12.50;67.10;;;;;;6185924;23;20013;-47
2021/04/22 08:29:10;;;;;;;31.85;15.10;;;12.50;67.20;;;;;;6185642;23;19997;-47
2021/04/22 08:31:36;;;;;;;31.27;15.43;;;12.50;67.30;;;;;;6186518;23;20071;-47
2021/04/22 08:34:07;;;;;;;28.52;15.02;;;12.50;67.30;;;;;;6186443;23;20001;-47
2021/04/22 08:36:34;;;;;;;38.33;15.90;;;12.50;67.30;;;;;;6186074;23;20357;-47
2021/04/22 08:39:00;;;;;;;33.20;16.35;;;12.50;67.40;;;;;;6185999;23;20001;-47
2021/04/22 08:41:26;;;;;;;31.23;15.30;;;12.50;67.30;;;;;;6186449;23;20063;-47
2021/04/22 08:43:52;;;;;;;33.00;17.17;;;12.50;67.40;;;;;;6186324;23;20080;-47
2021/04/22 08:46:18;;;;;;;27.20;14.50;;;12.50;67.30;;;;;;6186169;23;20044;-47
2021/04/22 08:48:44;;;;;;;38.88;16.65;;;12.50;67.20;;;;;;6185851;23;20308;-47
2021/04/22 08:51:11;;;;;;;33.45;15.25;;;12.50;67.20;;;;;;6186078;23;20289;-47
2021/04/22 08:53:40;;;;;;;26.63;12.13;;;12.50;67.20;;;;;;6185846;23;20397;-47
2021/04/22 08:56:07;;;;;;;38.85;14.93;;;12.50;67.30;;;;;;6185717;23;20009;-47
2021/04/22 08:58:33;;;;;;;30.60;13.80;;;12.50;67.30;;;;;;6185492;23;20001;-47
2021/04/22 09:01:03;;;;;;;28.52;13.80;;;12.50;67.20;;;;;;6185986;23;20002;-47
2021/04/22 09:03:29;;;;;;;37.80;15.35;;;12.50;67.20;;;;;;6186351;23;20009;-47
2021/04/22 09:05:54;;;;;;;33.92;14.50;;;12.60;67.40;;;;;;6186005;23;20019;-47
2021/04/22 09:08:36;;;;;;;27.30;14.15;;;12.60;67.20;;;;;;6185442;23;20028;-47
2021/04/22 09:11:04;;;;;;;29.02;13.20;;;12.60;67.20;;;;;;6186280;23;20033;-47
2021/04/22 09:13:30;;;;;;;29.85;13.10;;;12.60;67.10;;;;;;6185810;23;19997;-47
2021/04/22 09:16:03;;;;;;;26.27;13.98;;;12.60;66.90;;;;;;6185847;23;20013;-47
2021/04/22 09:18:29;;;;;;;24.50;12.80;;;12.60;66.90;;;;;;6185849;23;20007;-47
2021/04/22 09:20:56;;;;;;;29.10;12.85;;;12.60;66.90;;;;;;6185478;23;20012;-47
2021/04/22 09:23:27;;;;;;;27.25;13.25;;;12.60;66.90;;;;;;6186097;23;20005;-47
2021/04/22 09:25:57;;;;;;;27.40;12.95;;;12.60;66.80;;;;;;6185766;23;20001;-47
2021/04/22 09:28:32;;;;;;;;;;;12.70;66.80;;;;;;6186391;23;20072;-47
2021/04/22 09:30:57;;;;;;;21.25;11.10;;;12.70;66.80;;;;;;6185523;23;19907;-47
2021/04/22 09:33:30;;;;;;;25.20;12.23;;;12.70;66.90;;;;;;6185860;23;19997;-47
2021/04/22 09:36:12;;;;;;;26.13;12.10;;;12.70;67.00;;;;;;6185861;23;20013;-47
2021/04/22 09:38:40;;;;;;;28.38;14.68;;;12.70;66.90;;;;;;6185681;23;20001;-47
2021/04/22 09:41:07;;;;;;;31.02;13.52;;;12.70;66.80;;;;;;6185795;23;20087;-47
2021/04/22 09:43:33;;;;;;;24.73;13.65;;;12.70;66.80;;;;;;6185765;23;20005;-47
2021/04/22 09:45:58;;;;;;;31.65;15.13;;;12.70;66.80;;;;;;6185133;23;20080;-47
2021/04/22 09:48:28;;;;;;;39.33;16.73;;;12.70;66.70;;;;;;6185173;23;20005;-50
2021/04/22 09:50:55;;;;;;;27.95;13.50;;;12.70;66.60;;;;;;6185750;23;20005;-47
2021/04/22 09:53:24;;;;;;;38.47;16.35;;;12.70;66.60;;;;;;6186066;23;20005;-47
2021/04/22 09:55:50;;;;;;;23.73;12.27;;;12.80;66.60;;;;;;6185854;23;20001;-47
2021/04/22 09:58:30;;;;;;;30.55;13.98;;;12.80;66.50;;;;;;6185612;23;20409;-47
2021/04/22 10:00:56;;;;;;;32.67;14.55;;;12.80;66.60;;;;;;6185535;23;20013;-47
2021/04/22 10:03:22;;;;;;;26.70;13.93;;;12.80;66.50;;;;;;6185537;23;20405;-47
2021/04/22 10:05:59;;;;;;;31.88;15.75;;;12.80;66.60;;;;;;6185684;23;19998;-47
2021/04/22 10:08:26;;;;;;;29.80;13.80;;;12.80;66.60;;;;;;6185232;23;20420;-47
2021/04/22 10:11:02;;;;;;;33.33;15.82;;;12.80;66.50;;;;;;6185505;23;20001;-47
2021/04/22 10:13:29;;;;;;;29.73;14.57;;;12.80;66.60;;;;;;6185885;23;20005;-47
2021/04/22 10:15:59;;;;;;;31.33;14.20;;;12.90;66.60;;;;;;6185187;23;20001;-47
2021/04/22 10:18:35;;;;;;;33.38;15.38;;;12.90;66.60;;;;;;6185463;23;20012;-47
2021/04/22 10:21:01;;;;;;;34.22;15.85;;;12.90;66.60;;;;;;6185356;23;20005;-47
2021/04/22 10:23:29;;;;;;;29.17;15.25;;;12.90;66.60;;;;;;6185180;23;20328;-47
2021/04/22 10:25:55;;;;;;;26.33;14.48;;;12.90;66.50;;;;;;6185552;23;20008;-47
2021/04/22 10:28:21;;;;;;;32.30;14.90;;;12.90;66.50;;;;;;6185117;23;20427;-47
2021/04/22 10:30:49;;;;;;;28.58;14.75;;;12.90;66.50;;;;;;6185495;23;20002;-47
2021/04/22 10:33:15;;;;;;;29.63;13.40;;;12.90;66.50;;;;;;6185445;23;20099;-47
2021/04/22 10:35:43;;;;;;;33.20;14.70;;;12.90;66.60;;;;;;6185429;23;20072;-47
2021/04/22 10:38:09;;;;;;;35.47;14.57;;;12.90;66.60;;;;;;6185073;23;20097;-47
2021/04/22 10:40:38;;;;;;;28.90;14.65;;;12.90;66.60;;;;;;6185084;23;20017;-47
2021/04/22 10:43:06;;;;;;;33.67;15.15;;;12.90;66.50;;;;;;6185732;23;20068;-47
2021/04/22 10:45:34;;;;;;;30.55;15.55;;;12.90;66.40;;;;;;6185540;23;20063;-47
2021/04/22 10:47:59;;;;;;;29.58;15.27;;;12.90;66.50;;;;;;6185040;23;20417;-47
2021/04/22 10:50:32;;;;;;;27.70;13.63;;;12.90;66.60;;;;;;6184814;23;20005;-47
2021/04/22 10:53:00;;;;;;;30.60;13.50;;;12.90;66.60;;;;;;6185447;23;20007;-47
2021/04/22 10:55:30;;;;;;;26.85;12.98;;;12.90;66.50;;;;;;6185812;23;20463;-47
2021/04/22 10:57:59;;;;;;;32.50;14.02;;;12.90;66.60;;;;;;6187324;23;20013;-47
2021/04/22 11:00:28;;;;;;;28.27;15.10;;;13.00;66.60;;;;;;6186871;23;20005;-47
2021/04/22 11:02:56;;;;;;;30.23;14.10;;;13.00;66.60;;;;;;6186854;23;20001;-47
2021/04/22 11:05:26;;;;;;;26.88;13.38;;;13.00;66.60;;;;;;6187240;23;20004;-47
2021/04/22 11:08:06;;;;;;;25.88;11.45;;;13.00;66.50;;;;;;6186699;23;20013;-47
2021/04/22 11:10:43;;;;;;;26.52;12.75;;;13.00;66.50;;;;;;6186701;23;20001;-47
2021/04/22 11:13:16;;;;;;;35.00;16.23;;;13.00;66.50;;;;;;6187154;23;20009;-47
2021/04/22 11:15:54;;;;;;;25.85;13.48;;;13.00;66.50;;;;;;6186929;23;20016;-47
2021/04/22 11:18:20;;;;;;;24.52;12.88;;;13.00;66.50;;;;;;6186403;23;20466;-47
2021/04/22 11:20:46;;;;;;;26.50;12.32;;;13.00;66.50;;;;;;6186811;23;20329;-47
2021/04/22 11:23:19;;;;;;;28.85;12.90;;;13.00;66.50;;;;;;6186707;23;20029;-47
2021/04/22 11:25:52;;;;;;;20.90;11.35;;;13.10;66.60;;;;;;6186978;23;19998;-47
2021/04/22 11:28:34;;;;;;;25.15;13.45;;;13.10;66.50;;;;;;6186276;23;20405;-47
2021/04/22 11:31:11;;;;;;;19.92;10.85;;;13.10;66.50;;;;;;6187104;23;20028;-47
2021/04/22 11:33:38;;;;;;;23.67;12.57;;;13.10;66.30;;;;;;6186670;23;20012;-47
2021/04/22 11:36:17;;;;;;;25.10;12.77;;;13.10;66.30;;;;;;6187050;23;20008;-47
2021/04/22 11:39:05;;;;;;;28.40;14.85;;;13.10;66.40;;;;;;6186163;23;20016;-47
2021/04/22 11:41:32;;;;;;;30.65;13.73;;;13.10;66.30;;;;;;6186894;23;20001;-47
2021/04/22 11:44:07;;;;;;;29.15;14.98;;;13.10;66.40;;;;;;6186402;23;20076;-47
2021/04/22 11:46:43;;;;;;;32.05;14.55;;;13.10;66.40;;;;;;6186762;23;20116;-47
2021/04/22 11:49:23;;;;;;;29.85;13.85;;;13.00;66.30;;;;;;6186534;23;20001;-47
2021/04/22 11:51:48;;;;;;;30.70;15.20;;;13.10;66.50;;;;;;6186763;23;20009;-47
2021/04/22 11:54:20;;;;;;;31.40;15.57;;;13.10;66.60;;;;;;6186822;23;20051;-47
2021/04/22 11:57:03;;;;;;;26.50;14.30;;;13.10;66.40;;;;;;6186402;23;20005;-47
2021/04/22 11:59:30;;;;;;;32.97;15.50;;;13.10;66.20;;;;;;6186612;23;20027;-47
2021/04/22 12:02:04;;;;;;;28.98;14.32;;;13.10;67.00;;;;;;6186174;23;20092;-47
2021/04/22 12:04:36;;;;;;;29.77;15.23;;;13.10;66.20;;;;;;6186913;23;20076;-47
2021/04/22 12:07:08;;;;;;;25.95;14.25;;;13.10;66.20;;;;;;6185930;23;20032;-47
2021/04/22 12:09:34;;;;;;;27.35;13.23;;;13.10;66.20;;;;;;6186325;23;20001;-47
2021/04/22 12:12:07;;;;;;;30.33;15.25;;;13.10;66.30;;;;;;6186370;23;20032;-47
2021/04/22 12:14:33;;;;;;;27.88;14.10;;;13.10;66.40;;;;;;6186666;23;20341;-47
2021/04/22 12:16:59;;;;;;;27.40;13.95;;;13.10;66.30;;;;;;6186131;23;20005;-47
2021/04/22 12:19:30;;;;;;;30.20;14.07;;;13.10;66.40;;;;;;6185726;23;20009;-47
2021/04/22 12:22:00;;;;;;;28.05;12.43;;;13.10;66.30;;;;;;6186464;23;20013;-47
2021/04/22 12:24:26;;;;;;;25.88;12.02;;;13.10;66.40;;;;;;6186513;23;20312;-47
2021/04/22 12:26:52;;;;;;;30.52;14.23;;;13.10;66.30;;;;;;6185946;23;20423;-47
2021/04/22 12:29:18;;;;;;;33.33;16.83;;;13.10;66.40;;;;;;6185757;23;20007;-47
2021/04/22 12:32:02;;;;;;;34.58;13.30;;;13.10;66.30;;;;;;6186518;23;20056;-47
2021/04/22 12:34:35;;;;;;;29.10;14.32;;;13.10;66.00;;;;;;6186583;23;19997;-47